createdAt,value
2017-11-26T00:00:15.200Z,85.18
2017-11-26T00:02:42.633Z,84.56
2017-11-26T00:05:10.083Z,84.29
2017-11-26T00:07:37.476Z,84.32
2017-11-26T00:10:04.872Z,84.79
2017-11-26T00:12:32.268Z,85.10
2017-11-26T00:14:59.667Z,85.95
2017-11-26T00:17:27.057Z,85.58
2017-11-26T00:19:54.444Z,84.89
2017-11-26T00:22:21.847Z,85.14
2017-11-26T00:24:49.332Z,84.62
2017-11-26T00:27:16.779Z,85.10
2017-11-26T00:29:44.175Z,84.91
2017-11-26T00:32:11.596Z,85.29
2017-11-26T00:34:38.997Z,85.30
2017-11-26T00:37:06.400Z,84.82
2017-11-26T00:39:33.858Z,84.97
2017-11-26T00:42:01.260Z,85.52
2017-11-26T00:44:28.644Z,84.91
2017-11-26T00:46:56.050Z,85.07
2017-11-26T00:49:23.439Z,84.97
2017-11-26T00:51:50.879Z,84.98
2017-11-26T00:54:18.300Z,85.21
2017-11-26T00:56:45.738Z,85.57
2017-11-26T00:59:13.131Z,85.30
2017-11-26T01:01:40.544Z,85.81
2017-11-26T01:04:07.939Z,85.81
2017-11-26T01:06:35.331Z,85.58
2017-11-26T01:09:02.732Z,85.08
2017-11-26T01:11:30.163Z,85.12
2017-11-26T01:13:57.559Z,85.15
2017-11-26T01:16:24.963Z,85.12
2017-11-26T01:18:52.438Z,85.51
2017-11-26T01:21:19.826Z,86.44
2017-11-26T01:23:47.233Z,86.30
2017-11-26T01:26:14.631Z,86.86
2017-11-26T01:28:42.027Z,86.41
2017-11-26T01:31:09.524Z,86.49
2017-11-26T01:33:36.916Z,86.40
2017-11-26T01:36:04.327Z,86.43
2017-11-26T01:38:31.726Z,85.82
2017-11-26T01:40:59.107Z,85.60
2017-11-26T01:43:26.504Z,85.50
2017-11-26T01:45:53.892Z,85.29
2017-11-26T01:48:21.292Z,86.74
2017-11-26T01:50:48.755Z,86.90
2017-11-26T01:53:16.154Z,86.87
2017-11-26T01:55:43.553Z,86.07
2017-11-26T01:58:10.959Z,85.87
2017-11-26T02:00:38.347Z,85.74
2017-11-26T02:03:05.743Z,86.02
2017-11-26T02:05:33.179Z,87.10
2017-11-26T02:08:00.571Z,86.47
2017-11-26T02:10:27.959Z,86.39
2017-11-26T02:12:55.374Z,87.51
2017-11-26T02:15:22.804Z,87.15
2017-11-26T02:17:50.205Z,86.63
2017-11-26T02:20:17.596Z,86.75
2017-11-26T02:22:45.080Z,87.13
2017-11-26T02:25:12.467Z,86.90
2017-11-26T02:27:40.000Z,87.16
2017-11-26T02:30:07.399Z,87.21
2017-11-26T02:32:46.591Z,86.89
2017-11-26T02:35:25.803Z,86.97
2017-11-26T02:37:53.205Z,86.10
2017-11-26T02:40:20.616Z,86.04
2017-11-26T02:42:48.083Z,85.97
2017-11-26T02:45:15.475Z,86.42
2017-11-26T02:47:42.856Z,86.60
2017-11-26T02:50:10.266Z,86.40
2017-11-26T02:52:37.648Z,87.01
2017-11-26T02:55:05.047Z,86.83
2017-11-26T02:57:32.436Z,86.33
2017-11-26T02:59:59.856Z,86.19
2017-11-26T03:02:27.318Z,86.03
2017-11-26T03:04:54.763Z,86.35
2017-11-26T03:07:22.159Z,85.99
2017-11-26T03:09:49.553Z,85.64
2017-11-26T03:12:16.999Z,85.39
2017-11-26T03:14:44.479Z,85.51
2017-11-26T03:17:11.867Z,84.77
2017-11-26T03:19:39.263Z,84.92
2017-11-26T03:22:06.656Z,85.20
2017-11-26T03:24:34.066Z,85.13
2017-11-26T03:27:01.451Z,85.63
2017-11-26T03:29:28.847Z,85.61
2017-11-26T03:31:56.248Z,85.83
2017-11-26T03:34:23.656Z,85.30
2017-11-26T03:36:51.048Z,85.26
2017-11-26T03:39:18.440Z,85.35
2017-11-26T03:41:45.863Z,84.88
2017-11-26T03:44:13.357Z,85.22
2017-11-26T03:46:40.741Z,85.31
2017-11-26T03:49:08.151Z,85.52
2017-11-26T03:51:35.614Z,85.19
2017-11-26T03:54:03.026Z,85.46
2017-11-26T03:56:30.419Z,85.48
2017-11-26T03:58:57.802Z,85.81
2017-11-26T04:01:25.212Z,85.75
2017-11-26T04:03:52.586Z,85.87
2017-11-26T04:06:19.983Z,85.91
2017-11-26T04:08:47.368Z,85.39
2017-11-26T04:11:14.851Z,85.54
2017-11-26T04:13:42.322Z,85.70
2017-11-26T04:16:09.764Z,86.05
2017-11-26T04:18:37.219Z,86.11
2017-11-26T04:21:04.687Z,86.29
2017-11-26T04:23:32.097Z,86.05
2017-11-26T04:25:59.488Z,85.93
2017-11-26T04:28:26.881Z,85.57
2017-11-26T04:30:54.299Z,85.34
2017-11-26T04:33:21.755Z,85.48
2017-11-26T04:35:49.159Z,85.34
2017-11-26T04:38:16.568Z,85.85
2017-11-26T04:40:44.020Z,85.48
2017-11-26T04:43:11.423Z,85.14
2017-11-26T04:45:38.832Z,84.82
2017-11-26T04:48:06.283Z,85.18
2017-11-26T04:50:35.883Z,85.16
2017-11-26T04:53:03.339Z,85.00
2017-11-26T04:55:30.735Z,85.21
2017-11-26T04:57:58.156Z,84.59
2017-11-26T05:00:25.551Z,84.67
2017-11-26T05:02:52.973Z,85.33
2017-11-26T05:05:20.360Z,85.20
2017-11-26T05:07:47.767Z,85.09
2017-11-26T05:10:15.167Z,84.79
2017-11-26T05:12:42.563Z,84.88
2017-11-26T05:15:10.039Z,85.16
2017-11-26T05:17:37.436Z,85.13
2017-11-26T05:20:04.819Z,85.51
2017-11-26T05:22:32.252Z,85.24
2017-11-26T05:24:59.639Z,85.25
2017-11-26T05:27:27.042Z,85.13
2017-11-26T05:29:54.519Z,85.52
2017-11-26T05:32:21.942Z,85.30
2017-11-26T05:34:49.344Z,85.43
2017-11-26T05:37:16.715Z,85.30
2017-11-26T05:39:44.141Z,85.41
2017-11-26T05:42:11.610Z,84.94
2017-11-26T05:44:38.998Z,84.92
2017-11-26T05:47:06.384Z,84.59
2017-11-26T05:49:33.864Z,84.91
2017-11-26T05:52:01.247Z,84.60
2017-11-26T05:54:28.642Z,83.95
2017-11-26T05:56:56.120Z,84.06
2017-11-26T05:59:23.523Z,84.08
2017-11-26T06:01:50.938Z,84.00
2017-11-26T06:04:18.396Z,84.03
2017-11-26T06:06:45.796Z,84.82
2017-11-26T06:09:13.303Z,85.27
2017-11-26T06:11:40.699Z,85.59
2017-11-26T06:14:08.088Z,85.30
2017-11-26T06:16:35.479Z,85.08
2017-11-26T06:19:02.876Z,84.81
2017-11-26T06:21:30.399Z,84.83
2017-11-26T06:23:57.838Z,84.84
2017-11-26T06:26:25.227Z,84.95
2017-11-26T06:28:52.636Z,84.77
2017-11-26T06:31:20.279Z,84.26
2017-11-26T06:33:47.663Z,84.06
2017-11-26T06:36:15.061Z,84.44
2017-11-26T06:38:42.557Z,85.05
2017-11-26T06:41:09.980Z,84.64
2017-11-26T06:43:37.373Z,84.78
2017-11-26T06:46:04.768Z,85.19
2017-11-26T06:48:32.244Z,85.65
2017-11-26T06:50:59.637Z,84.98
2017-11-26T06:53:27.023Z,85.24
2017-11-26T06:55:54.511Z,84.78
2017-11-26T06:58:27.661Z,84.65
2017-11-26T07:00:55.062Z,84.83
2017-11-26T07:03:22.517Z,84.68
2017-11-26T07:05:49.916Z,85.13
2017-11-26T07:08:17.299Z,84.31
2017-11-26T07:10:44.774Z,84.30
2017-11-26T07:13:12.231Z,83.99
2017-11-26T07:15:39.619Z,84.32
2017-11-26T07:18:07.009Z,84.35
2017-11-26T07:20:34.424Z,84.34
2017-11-26T07:23:01.808Z,84.69
2017-11-26T07:25:29.303Z,85.71
2017-11-26T07:27:56.704Z,85.32
2017-11-26T07:30:24.112Z,85.22
2017-11-26T07:32:51.514Z,85.00
2017-11-26T07:35:18.949Z,85.15
2017-11-26T07:37:46.342Z,84.70
2017-11-26T07:40:13.750Z,84.60
2017-11-26T07:42:41.155Z,84.04
2017-11-26T07:45:08.561Z,84.24
2017-11-26T07:47:36.008Z,83.69
2017-11-26T07:50:03.410Z,83.02
2017-11-26T07:52:30.801Z,83.37
2017-11-26T07:54:58.210Z,82.64
2017-11-26T07:57:25.608Z,82.72
2017-11-26T07:59:53.008Z,82.49
2017-11-26T08:02:20.408Z,82.25
2017-11-26T08:04:47.802Z,83.06
2017-11-26T08:07:15.215Z,83.29
2017-11-26T08:09:42.616Z,83.35
2017-11-26T08:12:10.094Z,82.75
2017-11-26T08:14:37.547Z,83.28
2017-11-26T08:17:04.944Z,83.17
2017-11-26T08:19:32.330Z,83.36
2017-11-26T08:21:59.900Z,83.23
2017-11-26T08:24:27.288Z,83.10
2017-11-26T08:26:54.684Z,83.09
2017-11-26T08:29:22.079Z,82.88
2017-11-26T08:31:49.478Z,82.83
2017-11-26T08:34:16.867Z,82.88
2017-11-26T08:36:44.266Z,82.81
2017-11-26T08:39:11.655Z,83.33
2017-11-26T08:41:39.051Z,82.65
2017-11-26T08:44:06.435Z,82.47
2017-11-26T08:46:33.840Z,82.32
2017-11-26T08:49:01.228Z,82.57
2017-11-26T08:51:28.626Z,82.53
2017-11-26T08:53:56.016Z,82.21
2017-11-26T08:56:23.408Z,82.25
2017-11-26T08:58:50.809Z,81.74
2017-11-26T09:01:18.195Z,81.83
2017-11-26T09:03:45.596Z,81.94
2017-11-26T09:06:13.444Z,82.41
2017-11-26T09:08:41.729Z,82.62
2017-11-26T09:11:09.114Z,82.55
2017-11-26T09:13:36.507Z,82.21
2017-11-26T09:16:03.895Z,81.97
2017-11-26T09:18:31.293Z,81.97
2017-11-26T09:20:58.680Z,81.94
2017-11-26T09:23:26.116Z,82.24
2017-11-26T09:25:53.503Z,82.29
2017-11-26T09:28:20.912Z,81.73
2017-11-26T09:30:48.391Z,82.04
2017-11-26T09:33:15.783Z,81.91
2017-11-26T09:35:43.322Z,81.61
2017-11-26T09:38:10.702Z,81.61
2017-11-26T09:40:38.095Z,81.49
2017-11-26T09:43:05.492Z,81.03
2017-11-26T09:45:32.916Z,81.40
2017-11-26T09:48:00.400Z,81.69
2017-11-26T09:50:27.783Z,80.94
2017-11-26T09:52:55.175Z,80.96
2017-11-26T09:55:22.572Z,81.24
2017-11-26T09:57:49.994Z,80.99
2017-11-26T10:00:17.405Z,81.46
2017-11-26T10:02:44.799Z,81.77
2017-11-26T10:05:12.258Z,81.69
2017-11-26T10:07:39.719Z,81.74
2017-11-26T10:10:07.176Z,82.01
2017-11-26T10:12:34.637Z,82.07
2017-11-26T10:15:02.090Z,81.21
2017-11-26T10:17:29.547Z,81.83
2017-11-26T10:19:56.930Z,82.30
2017-11-26T10:22:24.330Z,82.27
2017-11-26T10:24:51.725Z,81.49
2017-11-26T10:27:19.135Z,81.62
2017-11-26T10:29:46.615Z,81.71
2017-11-26T10:32:13.999Z,82.04
2017-11-26T10:34:41.439Z,82.03
2017-11-26T10:37:08.899Z,82.40
2017-11-26T10:39:36.287Z,82.71
2017-11-26T10:42:03.675Z,82.13
2017-11-26T10:44:31.069Z,81.97
2017-11-26T10:46:58.451Z,81.67
2017-11-26T10:49:25.844Z,81.67
2017-11-26T10:51:53.216Z,81.24
2017-11-26T10:54:20.611Z,80.62
2017-11-26T10:56:48.003Z,81.72
2017-11-26T10:59:15.388Z,80.94
2017-11-26T11:01:42.848Z,81.18
2017-11-26T11:04:10.299Z,80.74
2017-11-26T11:06:37.684Z,80.38
2017-11-26T11:09:05.115Z,80.64
2017-11-26T11:11:32.500Z,81.05
2017-11-26T11:13:59.882Z,81.00
2017-11-26T11:16:27.276Z,80.89
2017-11-26T11:18:54.650Z,81.42
2017-11-26T11:21:22.099Z,81.61
2017-11-26T11:23:49.467Z,81.77
2017-11-26T11:26:16.864Z,82.31
2017-11-26T11:28:44.244Z,82.43
2017-11-26T11:31:11.630Z,81.92
2017-11-26T11:33:39.081Z,82.04
2017-11-26T11:36:06.480Z,81.71
2017-11-26T11:38:33.896Z,82.06
2017-11-26T11:41:01.291Z,82.07
2017-11-26T11:43:28.707Z,81.46
2017-11-26T11:45:56.110Z,81.71
2017-11-26T11:48:23.496Z,81.51
2017-11-26T11:50:50.947Z,81.27
2017-11-26T11:53:18.427Z,81.73
2017-11-26T11:55:45.840Z,81.72
2017-11-26T11:58:13.212Z,81.14
2017-11-26T12:00:40.602Z,81.55
2017-11-26T12:03:07.987Z,81.29
2017-11-26T12:05:35.459Z,81.42
2017-11-26T12:08:02.857Z,81.36
2017-11-26T12:10:30.247Z,81.48
2017-11-26T12:12:57.628Z,81.40
2017-11-26T12:15:25.021Z,81.58
2017-11-26T12:17:52.407Z,81.10
2017-11-26T12:20:19.788Z,81.38
2017-11-26T12:22:47.243Z,82.18
2017-11-26T12:25:14.700Z,81.93
2017-11-26T12:27:42.155Z,82.50
2017-11-26T12:30:09.616Z,82.80
2017-11-26T12:32:37.004Z,82.32
2017-11-26T12:35:04.385Z,82.41
2017-11-26T12:37:31.883Z,82.09
2017-11-26T12:39:59.343Z,81.69
2017-11-26T12:42:26.719Z,81.17
2017-11-26T12:44:54.152Z,81.15
2017-11-26T12:47:21.615Z,81.09
2017-11-26T12:49:48.995Z,81.08
2017-11-26T12:52:16.384Z,81.19
2017-11-26T12:54:43.767Z,80.98
2017-11-26T12:57:11.158Z,81.11
2017-11-26T12:59:38.549Z,81.84
2017-11-26T13:02:05.932Z,81.32
2017-11-26T13:04:33.323Z,80.60
2017-11-26T13:07:00.749Z,80.28
2017-11-26T13:09:28.135Z,80.13
2017-11-26T13:11:55.537Z,80.04
2017-11-26T13:14:22.920Z,80.24
2017-11-26T13:16:50.321Z,81.24
2017-11-26T13:19:17.721Z,81.27
2017-11-26T13:21:45.175Z,81.12
2017-11-26T13:24:12.633Z,80.74
2017-11-26T13:26:40.014Z,81.09
2017-11-26T13:29:07.409Z,80.82
2017-11-26T13:31:34.904Z,80.06
2017-11-26T13:34:02.299Z,79.78
2017-11-26T13:36:29.716Z,79.55
2017-11-26T13:38:57.107Z,79.65
2017-11-26T13:41:24.520Z,79.58
2017-11-26T13:43:51.919Z,80.45
2017-11-26T13:46:19.336Z,81.54
2017-11-26T13:48:46.793Z,81.84
2017-11-26T13:51:14.246Z,81.60
2017-11-26T13:53:41.632Z,81.34
2017-11-26T13:56:09.057Z,81.47
2017-11-26T13:58:36.508Z,81.07
2017-11-26T14:01:03.972Z,80.59
2017-11-26T14:03:31.452Z,80.83
2017-11-26T14:05:58.876Z,80.32
2017-11-26T14:08:26.278Z,81.26
2017-11-26T14:10:53.696Z,81.51
2017-11-26T14:13:21.147Z,81.64
2017-11-26T14:15:48.595Z,81.76
2017-11-26T14:18:16.060Z,81.26
2017-11-26T14:20:43.506Z,81.33
2017-11-26T14:23:10.978Z,81.86
2017-11-26T14:25:38.426Z,81.70
2017-11-26T14:28:05.907Z,81.07
2017-11-26T14:30:33.293Z,81.57
2017-11-26T14:33:00.715Z,81.62
2017-11-26T14:35:28.102Z,81.05
2017-11-26T14:37:55.503Z,80.67
2017-11-26T14:40:22.891Z,80.60
2017-11-26T14:42:50.327Z,79.91
2017-11-26T14:45:17.776Z,80.26
2017-11-26T14:47:45.228Z,80.70
2017-11-26T14:50:12.615Z,80.42
2017-11-26T14:52:40.012Z,79.96
2017-11-26T14:55:07.495Z,80.22
2017-11-26T14:57:34.959Z,79.83
2017-11-26T15:00:02.419Z,80.32
2017-11-26T15:02:29.796Z,80.54
2017-11-26T15:04:57.990Z,80.14
2017-11-26T15:07:25.392Z,79.55
2017-11-26T15:09:52.784Z,79.83
2017-11-26T15:12:20.207Z,79.99
2017-11-26T15:14:47.603Z,80.75
2017-11-26T15:17:14.984Z,80.32
2017-11-26T15:19:42.386Z,80.16
2017-11-26T15:22:09.771Z,80.25
2017-11-26T15:24:37.176Z,79.64
2017-11-26T15:27:04.637Z,79.37
2017-11-26T15:29:32.087Z,79.48
2017-11-26T15:31:59.543Z,78.90
2017-11-26T15:34:27.017Z,79.05
2017-11-26T15:36:54.402Z,79.78
2017-11-26T15:39:21.784Z,80.30
2017-11-26T15:41:49.176Z,80.15
2017-11-26T15:44:16.649Z,80.38
2017-11-26T15:46:44.040Z,80.41
2017-11-26T15:49:11.432Z,80.30
2017-11-26T15:51:38.891Z,79.99
2017-11-26T15:54:06.272Z,79.73
2017-11-26T15:56:33.711Z,80.29
2017-11-26T15:59:01.155Z,80.20
2017-11-26T16:01:28.553Z,80.27
2017-11-26T16:03:55.936Z,80.66
2017-11-26T16:06:23.324Z,80.51
2017-11-26T16:08:50.729Z,80.40
2017-11-26T16:11:18.132Z,80.01
2017-11-26T16:13:45.603Z,80.07
2017-11-26T16:16:13.152Z,79.64
2017-11-26T16:18:40.624Z,80.08
2017-11-26T16:21:08.033Z,80.01
2017-11-26T16:23:35.418Z,79.59
2017-11-26T16:26:02.805Z,80.16
2017-11-26T16:28:30.231Z,80.92
2017-11-26T16:30:57.651Z,80.87
2017-11-26T16:33:25.135Z,80.38
2017-11-26T16:35:52.516Z,79.99
2017-11-26T16:38:19.929Z,80.59
2017-11-26T16:40:47.310Z,80.65
2017-11-26T16:43:14.704Z,80.95
2017-11-26T16:45:42.085Z,81.22
2017-11-26T16:48:09.480Z,81.30
2017-11-26T16:50:36.865Z,81.06
2017-11-26T16:53:04.387Z,81.61
2017-11-26T16:55:31.825Z,81.65
2017-11-26T16:57:59.276Z,81.82
2017-11-26T17:00:27.563Z,81.25
2017-11-26T17:02:54.952Z,80.94
2017-11-26T17:05:22.338Z,81.19
2017-11-26T17:07:49.780Z,81.08
2017-11-26T17:10:17.170Z,81.00
2017-11-26T17:12:44.625Z,80.81
2017-11-26T17:15:12.080Z,80.72
2017-11-26T17:17:39.535Z,80.91
2017-11-26T17:20:06.994Z,80.96
2017-11-26T17:22:34.382Z,80.97
2017-11-26T17:25:01.852Z,81.00
2017-11-26T17:27:29.245Z,81.04
2017-11-26T17:29:56.615Z,81.11
2017-11-26T17:32:24.028Z,81.45
2017-11-26T17:34:51.411Z,81.16
2017-11-26T17:37:18.796Z,81.78
2017-11-26T17:39:46.389Z,81.62
2017-11-26T17:42:13.773Z,81.96
2017-11-26T17:44:41.195Z,81.97
2017-11-26T17:47:08.583Z,81.76
2017-11-26T17:49:35.973Z,81.77
2017-11-26T17:52:03.479Z,82.19
2017-11-26T17:54:30.870Z,81.41
2017-11-26T17:56:58.251Z,81.58
2017-11-26T17:59:25.657Z,81.62
2017-11-26T18:01:53.119Z,81.24
2017-11-26T18:04:20.595Z,81.69
2017-11-26T18:06:48.046Z,81.70
2017-11-26T18:09:15.484Z,81.63
2017-11-26T18:11:42.872Z,81.24
2017-11-26T18:14:10.273Z,80.80
2017-11-26T18:16:37.678Z,81.02
2017-11-26T18:19:05.079Z,80.72
2017-11-26T18:21:32.467Z,81.48
2017-11-26T18:23:59.853Z,81.10
2017-11-26T18:26:27.296Z,80.87
2017-11-26T18:28:54.686Z,81.26
2017-11-26T18:31:22.071Z,81.21
2017-11-26T18:33:49.447Z,81.16
2017-11-26T18:36:16.850Z,81.25
2017-11-26T18:38:44.235Z,80.87
2017-11-26T18:41:11.629Z,80.85
2017-11-26T18:43:39.010Z,80.83
2017-11-26T18:46:06.396Z,81.27
2017-11-26T18:48:33.783Z,81.83
2017-11-26T18:51:01.190Z,81.89
2017-11-26T18:53:28.566Z,81.71
2017-11-26T18:55:55.960Z,82.05
2017-11-26T18:58:23.354Z,82.61
2017-11-26T19:00:51.027Z,82.57
2017-11-26T19:03:18.516Z,82.34
2017-11-26T19:05:45.911Z,82.41
2017-11-26T19:08:13.285Z,82.39
2017-11-26T19:10:40.687Z,82.73
2017-11-26T19:13:08.093Z,81.99
2017-11-26T19:15:35.497Z,82.25
2017-11-26T19:18:02.981Z,82.72
2017-11-26T19:20:30.443Z,82.70
2017-11-26T19:22:57.911Z,82.65
2017-11-26T19:25:25.311Z,82.36
2017-11-26T19:27:52.708Z,82.45
2017-11-26T19:30:20.103Z,82.41
2017-11-26T19:32:47.623Z,82.51
2017-11-26T19:35:15.020Z,82.07
2017-11-26T19:37:42.416Z,82.65
2017-11-26T19:40:09.805Z,82.70
2017-11-26T19:42:37.190Z,82.07
2017-11-26T19:45:04.683Z,82.69
2017-11-26T19:47:32.083Z,82.87
2017-11-26T19:49:59.467Z,83.24
2017-11-26T19:52:26.859Z,83.50
2017-11-26T19:54:54.265Z,82.97
2017-11-26T19:57:21.653Z,82.80
2017-11-26T19:59:49.053Z,82.60
2017-11-26T20:02:16.452Z,82.61
2017-11-26T20:04:43.835Z,82.22
2017-11-26T20:07:11.219Z,82.36
2017-11-26T20:09:38.609Z,82.84
2017-11-26T20:12:05.999Z,83.09
2017-11-26T20:14:33.463Z,82.46
2017-11-26T20:17:00.847Z,82.64
2017-11-26T20:19:28.259Z,82.62
2017-11-26T20:21:55.648Z,81.75
2017-11-26T20:24:23.059Z,82.14
2017-11-26T20:26:50.508Z,82.60
2017-11-26T20:29:17.898Z,82.25
2017-11-26T20:31:45.289Z,82.39
2017-11-26T20:34:12.672Z,82.50
2017-11-26T20:36:40.060Z,82.94
2017-11-26T20:39:07.448Z,82.80
2017-11-26T20:41:34.831Z,82.87
2017-11-26T20:44:02.225Z,83.03
2017-11-26T20:46:29.633Z,82.76
2017-11-26T20:48:57.020Z,83.01
2017-11-26T20:51:24.472Z,83.17
2017-11-26T20:53:51.866Z,83.21
2017-11-26T20:56:19.248Z,83.05
2017-11-26T20:58:46.655Z,82.96
2017-11-26T21:01:14.030Z,82.35
2017-11-26T21:03:41.487Z,82.10
2017-11-26T21:09:04.651Z,82.27
2017-11-26T21:11:32.037Z,82.40
2017-11-26T21:13:59.437Z,82.88
2017-11-26T21:16:26.810Z,82.60
2017-11-26T21:18:54.205Z,81.90
2017-11-26T21:21:21.581Z,82.30
2017-11-26T21:23:48.968Z,82.85
2017-11-26T21:26:16.348Z,82.41
2017-11-26T21:28:43.731Z,83.13
2017-11-26T21:31:11.124Z,83.35
2017-11-26T21:33:38.512Z,83.61
2017-11-26T21:36:05.910Z,83.51
2017-11-26T21:38:33.483Z,83.43
2017-11-26T21:41:01.019Z,82.86
2017-11-26T21:43:28.632Z,82.87
2017-11-26T21:45:56.098Z,83.89
2017-11-26T21:48:23.713Z,83.27
2017-11-26T21:50:51.139Z,83.40
2017-11-26T21:53:18.701Z,83.93
2017-11-26T21:55:46.236Z,83.81
2017-11-26T21:58:13.635Z,83.71
2017-11-26T22:00:41.092Z,83.12
2017-11-26T22:03:08.606Z,82.88
2017-11-26T22:05:36.197Z,82.71
2017-11-26T22:08:03.704Z,83.20
2017-11-26T22:10:31.276Z,82.85
2017-11-26T22:12:58.766Z,82.99
2017-11-26T22:15:26.294Z,83.65
2017-11-26T22:17:53.810Z,83.65
2017-11-26T22:20:21.335Z,83.94
2017-11-26T22:22:48.873Z,83.61
2017-11-26T22:25:16.497Z,84.09
2017-11-26T22:27:44.093Z,84.57
2017-11-26T22:30:11.696Z,84.52
2017-11-26T22:32:39.213Z,84.95
2017-11-26T22:35:07.419Z,84.31
2017-11-26T22:37:34.953Z,84.23
2017-11-26T22:40:02.439Z,84.48
2017-11-26T22:42:29.962Z,84.67
2017-11-26T22:44:57.547Z,84.48
2017-11-26T22:47:25.117Z,84.83
2017-11-26T22:49:52.570Z,85.05
2017-11-26T22:52:20.091Z,85.16
2017-11-26T22:54:47.539Z,85.74
2017-11-26T22:57:15.092Z,85.54
2017-11-26T22:59:42.483Z,85.69
2017-11-26T23:02:09.872Z,85.58
2017-11-26T23:04:46.915Z,84.92
2017-11-26T23:07:14.302Z,84.74
2017-11-26T23:09:41.711Z,85.31
2017-11-26T23:12:09.079Z,85.07
2017-11-26T23:14:36.478Z,85.00
2017-11-26T23:17:03.878Z,85.42
2017-11-26T23:19:31.307Z,85.58
2017-11-26T23:21:58.706Z,85.68
2017-11-26T23:24:26.092Z,85.63
2017-11-26T23:26:53.484Z,85.51
2017-11-26T23:29:20.875Z,85.44
2017-11-26T23:31:48.266Z,84.95
2017-11-26T23:34:15.648Z,85.43
2017-11-26T23:36:43.038Z,85.14
2017-11-26T23:39:10.415Z,85.15
2017-11-26T23:41:37.811Z,85.20
2017-11-26T23:44:05.195Z,85.57
2017-11-26T23:46:32.596Z,85.56
2017-11-26T23:48:59.971Z,85.39
2017-11-26T23:51:27.365Z,85.62
2017-11-26T23:53:54.744Z,85.80
2017-11-26T23:56:22.144Z,85.68
2017-11-26T23:58:49.541Z,85.40
